Time;durP1;ratioP1;P1;durP2;ratioP2;P2;SDS_P1;SDS_P2;PMS_P1;PMS_P2;Temp;Humidity;BMP_temperature;BMP_pressure;BME280_temperature;BME280_humidity;BME280_pressure;Samples;Min_cycle;Max_cycle;Signal;HPM_P1;HPM_P2
2021/09/08 00:00:45;;;;;;;16.45;7.80;;;;;;;4.80;100.00;102122.83;1757414;81;21485;-52
2021/09/08 00:03:11;;;;;;;16.05;7.70;;;;;;;4.74;100.00;102124.39;1757206;81;20991;-52
2021/09/08 00:05:38;;;;;;;15.40;8.73;;;;;;;4.72;100.00;102122.61;1757213;81;20933;-54
2021/09/08 00:08:05;;;;;;;13.53;7.17;;;;;;;4.68;100.00;102127.19;1757380;81;21123;-50
2021/09/08 00:10:33;;;;;;;9.75;6.90;;;;;;;4.62;100.00;102126.96;1757223;81;20974;-51
2021/09/08 00:13:01;;;;;;;10.25;7.05;;;;;;;4.62;100.00;102126.96;1757399;81;20939;-54
2021/09/08 00:15:28;;;;;;;15.60;8.10;;;;;;;4.58;100.00;102126.86;1727732;81;20983;-52
2021/09/08 00:17:56;;;;;;;14.33;7.65;;;;;;;4.58;100.00;102132.00;1757604;81;21472;-51
2021/09/08 00:20:24;;;;;;;14.35;6.37;;;;;;;4.58;100.00;102136.27;1756224;80;21141;-52
2021/09/08 00:22:51;;;;;;;11.75;6.42;;;;;;;4.56;100.00;102136.20;1752354;81;21517;-51
2021/09/08 00:25:17;;;;;;;12.33;6.97;;;;;;;4.49;100.00;102130.81;1722001;82;21522;-54
2021/09/08 00:27:44;;;;;;;11.93;7.03;;;;;;;4.49;100.00;102130.81;1739484;82;21494;-52
2021/09/08 00:30:11;;;;;;;7.92;5.75;;;;;;;4.52;100.00;102139.89;1739732;82;20948;-53
2021/09/08 00:32:39;;;;;;;11.43;6.87;;;;;;;4.51;100.00;102138.14;1739577;82;21067;-53
2021/09/08 00:35:07;;;;;;;13.18;7.30;;;;;;;4.48;100.00;102140.22;1739551;82;20975;-53
2021/09/08 00:37:35;;;;;;;10.85;6.20;;;;;;;4.44;100.00;102139.66;1739025;82;21022;-54
2021/09/08 00:40:02;;;;;;;13.48;6.72;;;;;;;4.41;100.00;102145.94;1720091;82;21034;-53
2021/09/08 00:42:28;;;;;;;12.82;5.87;;;;;;;4.44;100.00;102143.50;1739069;82;20921;-52
2021/09/08 00:44:57;;;;;;;10.88;5.80;;;;;;;4.48;100.00;102141.50;1738874;82;21154;-53
2021/09/08 00:47:25;;;;;;;16.23;4.97;;;;;;;4.48;100.00;102141.50;1738839;82;21580;-54
2021/09/08 00:49:52;;;;;;;11.05;5.80;;;;;;;4.47;100.00;102142.32;1738920;82;20987;-52
2021/09/08 00:52:19;;;;;;;10.43;5.65;;;;;;;4.49;100.00;102147.09;1738783;82;20933;-52
2021/09/08 00:54:48;;;;;;;8.15;5.20;;;;;;;4.56;100.00;102147.75;1738882;82;20960;-53
2021/09/08 00:57:19;;;;;;;13.05;5.62;;;;;;;4.59;100.00;102140.16;1738722;82;20976;-53
2021/09/08 00:59:48;;;;;;;7.10;4.75;;;;;;;4.62;100.00;102142.35;1739151;82;20984;-55
2021/09/08 01:02:16;;;;;;;8.48;5.83;;;;;;;4.62;100.00;102144.92;1738975;82;21023;-53
2021/09/08 01:04:43;;;;;;;9.83;5.67;;;;;;;4.60;100.00;102149.59;1738805;82;21115;-52
2021/09/08 01:07:13;;;;;;;9.40;5.40;;;;;;;4.57;100.00;102146.92;1738948;82;21031;-53
2021/09/08 01:09:40;;;;;;;15.68;5.92;;;;;;;4.53;100.00;102143.80;1738996;82;22058;-53
2021/09/08 01:12:07;;;;;;;10.00;6.08;;;;;;;4.50;100.00;102143.70;1739103;82;21541;-54
2021/09/08 01:14:36;;;;;;;7.80;5.70;;;;;;;4.46;100.00;102142.72;1738824;82;21000;-55
2021/09/08 01:17:05;;;;;;;11.48;5.17;;;;;;;4.43;100.00;102149.45;1738909;82;20988;-55
2021/09/08 01:19:33;;;;;;;8.63;5.72;;;;;;;4.39;100.00;102141.16;1719598;82;22279;-54
2021/09/08 01:22:00;;;;;;;9.78;6.20;;;;;;;4.34;100.00;102147.44;1720269;82;21782;-54
2021/09/08 01:24:26;;;;;;;18.17;5.78;;;;;;;4.30;100.00;102146.45;1738819;82;20936;-54
2021/09/08 01:26:55;;;;;;;7.65;5.85;;;;;;;4.26;100.00;102142.44;1743382;82;21512;-54
2021/09/08 01:29:21;;;;;;;10.55;5.37;;;;;;;4.22;100.00;102137.63;1744159;82;21043;-54
2021/09/08 01:31:55;;;;;;;13.88;6.10;;;;;;;4.19;100.00;102123.43;1744370;82;21512;-55
2021/09/08 01:34:23;;;;;;;9.85;5.75;;;;;;;4.16;100.00;102124.58;1744329;82;21160;-53
2021/09/08 01:36:49;;;;;;;8.40;5.55;;;;;;;4.12;100.00;102116.32;1744283;82;21695;-52
2021/09/08 01:39:18;;;;;;;10.50;5.47;;;;;;;4.11;100.00;102116.75;1744322;82;21469;-52
2021/09/08 01:41:48;;;;;;;12.10;5.60;;;;;;;4.12;100.00;102116.32;1744290;82;20940;-53
2021/09/08 01:44:24;;;;;;;11.43;5.62;;;;;;;4.09;100.00;102112.38;1744579;82;21019;-54
2021/09/08 01:46:53;;;;;;;9.95;5.05;;;;;;;4.06;100.00;102117.40;1744142;82;21166;-52
2021/09/08 01:49:20;;;;;;;11.12;5.12;;;;;;;4.03;100.00;102124.55;1744451;82;21542;-53
2021/09/08 01:51:47;;;;;;;10.53;5.90;;;;;;;4.03;100.00;102124.55;1744410;82;21018;-55
2021/09/08 01:54:13;;;;;;;10.23;5.45;;;;;;;4.02;100.00;102123.70;1717109;82;21059;-52
2021/09/08 01:56:40;;;;;;;10.95;5.12;;;;;;;4.03;100.00;102124.16;1744200;82;21023;-52
2021/09/08 01:59:07;;;;;;;6.22;4.70;;;;;;;4.03;100.00;102131.85;1744286;82;21096;-54
2021/09/08 02:01:33;;;;;;;9.60;4.65;;;;;;;4.05;100.00;102133.20;1744168;82;21000;-54
2021/09/08 02:04:01;;;;;;;11.68;4.70;;;;;;;4.05;100.00;102136.16;1716686;82;20975;-53
2021/09/08 02:06:28;;;;;;;8.63;4.83;;;;;;;4.06;100.00;102137.91;1744396;82;20972;-54
2021/09/08 02:08:57;;;;;;;9.18;5.00;;;;;;;4.05;100.00;102134.87;1716803;82;21038;-54
2021/09/08 02:11:25;;;;;;;12.43;5.30;;;;;;;4.03;100.00;102136.98;1744123;82;21199;-55
2021/09/08 02:13:52;;;;;;;10.78;5.40;;;;;;;4.04;100.00;102135.27;1744284;82;20940;-53
2021/09/08 02:16:21;;;;;;;12.73;5.33;;;;;;;4.00;100.00;102134.70;1744285;82;21470;-54
2021/09/08 02:18:50;;;;;;;12.82;6.45;;;;;;;4.00;100.00;102134.70;1744112;82;21015;-54
2021/09/08 02:21:17;;;;;;;20.75;8.93;;;;;;;3.96;100.00;102140.54;1744318;81;22221;-54
2021/09/08 02:23:45;;;;;;;19.90;10.50;;;;;;;3.93;100.00;102134.03;1744092;82;20905;-54
2021/09/08 02:26:11;;;;;;;25.35;12.10;;;;;;;3.91;100.00;102128.84;1743850;82;20975;-54
2021/09/08 02:28:39;;;;;;;25.10;11.28;;;;;;;3.91;100.00;102138.23;1744057;82;20920;-51
2021/09/08 02:31:06;;;;;;;26.80;11.38;;;;;;;3.92;100.00;102137.41;1744168;82;21510;-52
2021/09/08 02:33:34;;;;;;;22.65;11.78;;;;;;;3.91;100.00;102140.79;1744117;82;21075;-53
2021/09/08 02:36:01;;;;;;;30.57;12.43;;;;;;;3.87;100.00;102139.41;1744168;82;21138;-52
2021/09/08 02:38:29;;;;;;;31.17;14.95;;;;;;;3.84;100.00;102142.25;1744189;82;21511;-53
2021/09/08 02:40:57;;;;;;;31.60;14.45;;;;;;;3.80;100.00;102141.28;1744147;82;21040;-54
2021/09/08 02:43:23;;;;;;;29.77;13.98;;;;;;;3.80;100.00;102137.84;1744291;82;20984;-54
2021/09/08 02:45:51;;;;;;;27.05;12.28;;;;;;;3.80;100.00;102133.99;1744055;82;21513;-55
2021/09/08 02:48:19;;;;;;;18.05;10.40;;;;;;;3.81;100.00;102139.58;1744081;82;21121;-52
2021/09/08 02:50:47;;;;;;;25.08;11.55;;;;;;;3.82;100.00;102131.08;1717245;82;20987;-54
2021/09/08 02:53:14;;;;;;;22.27;10.00;;;;;;;3.82;100.00;102131.08;1744337;82;21545;-54
2021/09/08 02:55:40;;;;;;;20.40;9.78;;;;;;;3.85;100.00;102133.75;1741178;82;20956;-53
2021/09/08 02:58:06;;;;;;;18.82;9.45;;;;;;;3.83;100.00;102140.50;1744441;82;20976;-54
2021/09/08 03:00:33;;;;;;;26.93;10.30;;;;;;;3.81;100.00;102138.30;1744124;82;21125;-52
2021/09/08 03:02:59;;;;;;;20.45;8.68;;;;;;;3.79;100.00;102138.27;1744186;82;21597;-54
2021/09/08 03:05:26;;;;;;;15.53;8.93;;;;;;;3.73;100.00;102137.63;1744098;82;21019;-53
2021/09/08 03:07:53;;;;;;;15.93;8.80;;;;;;;3.73;100.00;102137.63;1744369;82;21030;-54
2021/09/08 03:10:20;;;;;;;22.10;10.60;;;;;;;3.70;100.00;102133.67;1744225;82;21478;-55
2021/09/08 03:12:48;;;;;;;31.35;13.43;;;;;;;3.68;100.00;102132.74;1744023;82;20900;-53
2021/09/08 03:15:15;;;;;;;39.65;17.90;;;;;;;3.64;100.00;102132.14;1743986;82;20936;-52
2021/09/08 03:17:42;;;;;;;41.77;17.07;;;;;;;3.58;100.00;102130.24;1744387;82;21002;-54
2021/09/08 03:20:11;;;;;;;22.50;10.93;;;;;;;3.57;100.00;102134.02;1744162;81;21506;-54
2021/09/08 03:22:38;;;;;;;29.40;12.60;;;;;;;3.59;100.00;102136.22;1717206;82;21030;-53
2021/09/08 03:25:06;;;;;;;30.75;15.88;;;;;;;3.63;100.00;102138.50;1744032;82;21216;-53
2021/09/08 03:27:32;;;;;;;28.77;15.55;;;;;;;3.65;100.00;102137.72;1721136;82;21565;-53
2021/09/08 03:29:59;;;;;;;26.93;13.53;;;;;;;3.66;100.00;102135.63;1748933;82;20971;-52
2021/09/08 03:32:25;;;;;;;24.55;10.90;;;;;;;3.67;100.00;102136.13;1749033;82;21022;-53
2021/09/08 03:34:52;;;;;;;28.62;11.65;;;;;;;3.69;100.00;102140.89;1748884;82;21003;-54
2021/09/08 03:37:19;;;;;;;23.85;11.30;;;;;;;3.72;100.00;102145.23;1748867;82;21967;-54
2021/09/08 03:39:46;;;;;;;25.50;13.70;;;;;;;3.71;100.00;102141.81;1749003;82;21463;-54
2021/09/08 03:42:12;;;;;;;181.87;71.57;;;;;;;3.72;100.00;102142.67;1748951;82;20980;-52
2021/09/08 03:44:38;;;;;;;371.52;133.30;;;;;;;3.72;100.00;102143.56;1749257;82;20971;-54
2021/09/08 03:47:06;;;;;;;304.23;103.85;;;;;;;3.73;100.00;102142.74;1748828;82;21015;-55
2021/09/08 03:49:32;;;;;;;234.37;80.00;;;;;;;3.76;100.00;102145.80;1748974;82;21137;-55
2021/09/08 03:52:00;;;;;;;166.68;59.05;;;;;;;3.81;100.00;102147.27;1748734;82;20996;-54
2021/09/08 03:54:28;;;;;;;119.17;43.38;;;;;;;3.86;100.00;102149.58;1749087;82;20995;-53
2021/09/08 03:56:55;;;;;;;95.03;35.00;;;;;;;3.90;100.00;102150.15;1749037;82;20944;-54
2021/09/08 03:59:23;;;;;;;76.57;26.75;;;;;;;3.95;100.00;102143.53;1748802;82;20975;-54
2021/09/08 04:01:49;;;;;;;52.58;23.38;;;;;;;4.05;100.00;102138.72;1748669;82;21987;-53
2021/09/08 04:04:17;;;;;;;56.95;22.42;;;;;;;4.16;100.00;102140.84;1748818;82;20920;-55
2021/09/08 04:06:45;;;;;;;44.65;21.42;;;;;;;4.39;100.00;102134.75;1748902;82;21014;-53
2021/09/08 04:09:13;;;;;;;49.63;20.12;;;;;;;4.52;100.00;102131.80;1748820;82;20901;-53
2021/09/08 04:11:39;;;;;;;50.25;19.77;;;;;;;4.52;100.00;102131.80;1748882;82;20983;-52
2021/09/08 04:14:06;;;;;;;40.28;18.12;;;;;;;4.70;100.00;102125.54;1749008;82;21825;-53
2021/09/08 04:16:34;;;;;;;40.85;17.57;;;;;;;5.16;100.00;102120.55;1748953;82;20956;-54
2021/09/08 04:19:02;;;;;;;41.53;18.82;;;;;;;5.16;100.00;102120.55;1748969;82;20954;-54
2021/09/08 04:21:29;;;;;;;48.98;18.82;;;;;;;5.48;100.00;102121.06;1748912;81;20940;-53
2021/09/08 04:23:56;;;;;;;40.20;17.05;;;;;;;5.79;100.00;102122.37;1749030;82;21581;-54
2021/09/08 04:26:22;;;;;;;43.35;19.52;;;;;;;6.12;100.00;102117.72;1747551;82;21625;-53
2021/09/08 04:28:49;;;;;;;35.83;19.23;;;;;;;6.49;100.00;102120.38;1744127;82;20940;-55
2021/09/08 04:31:17;;;;;;;35.63;19.98;;;;;;;6.81;100.00;102120.28;1744325;82;20948;-54
2021/09/08 04:33:43;;;;;;;37.08;18.95;;;;;;;7.11;100.00;102119.28;1744240;82;21486;-52
2021/09/08 04:36:11;;;;;;;29.25;16.30;;;;;;;7.47;100.00;102119.62;1744087;82;20987;-54
2021/09/08 04:38:38;;;;;;;31.70;16.25;;;;;;;7.87;100.00;102119.55;1744294;82;21132;-53
2021/09/08 04:41:05;;;;;;;29.18;13.75;;;;;;;8.27;100.00;102121.59;1744478;82;20904;-54
2021/09/08 04:43:31;;;;;;;20.30;10.78;;;;;;;8.67;100.00;102117.97;1744333;82;20987;-52
2021/09/08 04:45:58;;;;;;;28.95;14.25;;;;;;;9.03;100.00;102117.66;1744171;82;21023;-53
2021/09/08 04:48:25;;;;;;;15.38;6.90;;;;;;;9.31;100.00;102112.02;1716718;82;20972;-54
2021/09/08 04:50:51;;;;;;;9.75;5.25;;;;;;;9.56;100.00;102108.46;1744211;82;21132;-53
2021/09/08 04:53:17;;;;;;;5.35;4.20;;;;;;;9.78;100.00;102117.33;1744205;82;20964;-54
2021/09/08 04:55:44;;;;;;;6.28;4.85;;;;;;;9.95;100.00;102108.89;1744221;82;20972;-53
2021/09/08 04:58:10;;;;;;;6.22;3.92;;;;;;;10.04;100.00;102116.33;1744096;82;20972;-55
2021/09/08 05:00:38;;;;;;;5.92;3.60;;;;;;;10.06;100.00;102113.74;1744330;82;21312;-53
2021/09/08 05:03:04;;;;;;;5.05;3.50;;;;;;;10.07;100.00;102114.18;1744352;82;21120;-53
2021/09/08 05:05:31;;;;;;;6.40;3.00;;;;;;;10.04;100.00;102116.33;1744028;82;20975;-52
2021/09/08 05:07:57;;;;;;;6.70;3.20;;;;;;;10.01;100.00;102119.30;1744246;82;21521;-54
2021/09/08 05:10:26;;;;;;;5.50;2.90;;;;;;;9.98;100.00;102122.74;1744202;82;20999;-54
2021/09/08 05:12:53;;;;;;;3.87;2.70;;;;;;;9.94;100.00;102120.95;1744227;82;21034;-53
2021/09/08 05:15:19;;;;;;;3.92;2.80;;;;;;;9.92;100.00;102120.06;1743858;82;21500;-52
2021/09/08 05:17:47;;;;;;;4.92;2.85;;;;;;;9.90;99.87;102121.77;1744079;82;20948;-55
2021/09/08 05:20:14;;;;;;;7.28;3.05;;;;;;;9.90;99.62;102126.95;1744228;81;20923;-54
2021/09/08 05:22:41;;;;;;;3.02;2.72;;;;;;;9.89;99.13;102126.09;1744044;82;20987;-52
2021/09/08 05:25:08;;;;;;;4.62;2.75;;;;;;;9.91;98.66;102124.80;1716705;82;21023;-54
2021/09/08 05:27:35;;;;;;;2.33;2.12;;;;;;;9.93;97.99;102125.68;1720279;82;21748;-53
2021/09/08 05:30:03;;;;;;;3.15;2.77;;;;;;;9.99;97.11;102128.36;1748877;82;20948;-55
2021/09/08 05:32:30;;;;;;;2.87;2.52;;;;;;;10.04;96.19;102124.09;1748974;82;21681;-53
2021/09/08 05:34:56;;;;;;;6.22;2.40;;;;;;;10.11;95.62;102126.33;1748818;82;21382;-55
2021/09/08 05:37:24;;;;;;;4.37;2.60;;;;;;;10.20;94.61;102125.52;1748968;82;20987;-55
2021/09/08 05:39:51;;;;;;;4.67;2.95;;;;;;;10.27;93.45;102131.63;1748954;82;21257;-53
2021/09/08 05:42:17;;;;;;;10.68;2.85;;;;;;;10.34;91.27;102124.36;1748809;82;20912;-55
2021/09/08 05:44:45;;;;;;;11.22;2.90;;;;;;;10.42;89.83;102123.17;1721486;82;20952;-54
2021/09/08 05:47:11;;;;;;;4.50;2.72;;;;;;;10.52;88.55;102127.59;1748731;81;20892;-55
2021/09/08 05:49:38;;;;;;;11.15;3.10;;;;;;;10.59;86.44;102121.60;1748930;82;21031;-53
2021/09/08 05:52:05;;;;;;;7.25;2.80;;;;;;;10.69;84.59;102125.55;1749152;82;21641;-54
2021/09/08 05:54:33;;;;;;;15.65;3.08;;;;;;;10.79;83.45;102129.96;1748812;82;20889;-54
2021/09/08 05:57:01;;;;;;;7.28;3.62;;;;;;;10.89;82.67;102129.16;1748822;82;21573;-53
2021/09/08 05:59:27;;;;;;;4.97;3.15;;;;;;;11.02;81.70;102129.25;1748933;82;21014;-55
2021/09/08 06:01:54;;;;;;;8.63;2.90;;;;;;;11.14;80.47;102132.36;1748864;82;20959;-55
2021/09/08 06:04:20;;;;;;;4.92;2.87;;;;;;;11.25;80.07;102125.94;1748930;82;21130;-53
2021/09/08 06:06:48;;;;;;;6.70;2.85;;;;;;;11.37;78.50;102125.98;1748799;82;21577;-55
2021/09/08 06:09:15;;;;;;;7.15;2.87;;;;;;;11.53;77.27;102132.55;1748956;82;21497;-56
2021/09/08 06:11:43;;;;;;;8.88;3.20;;;;;;;11.67;76.77;102127.41;1748704;82;20952;-52
2021/09/08 06:14:12;;;;;;;6.78;3.30;;;;;;;11.82;76.35;102127.89;1748677;82;20924;-53
2021/09/08 06:16:40;;;;;;;8.13;3.27;;;;;;;11.94;76.02;102126.61;1748834;82;21075;-52
2021/09/08 06:19:08;;;;;;;3.62;2.95;;;;;;;12.05;75.56;102124.96;1748791;82;20940;-55
2021/09/08 06:21:34;;;;;;;5.70;3.83;;;;;;;12.17;75.14;102120.22;1721845;82;21520;-55
2021/09/08 06:24:04;;;;;;;14.47;5.20;;;;;;;12.29;74.50;102116.78;1748704;82;20971;-53
2021/09/08 06:26:31;;;;;;;17.77;6.10;;;;;;;12.45;73.55;102119.36;1748248;81;20975;-53
2021/09/08 06:28:57;;;;;;;13.95;6.17;;;;;;;12.59;73.15;102111.56;1744103;82;21213;-52
2021/09/08 06:31:24;;;;;;;16.93;5.40;;;;;;;12.73;71.06;102112.44;1744006;82;20975;-54
2021/09/08 06:33:51;;;;;;;17.90;5.85;;;;;;;12.86;67.25;102106.78;1744050;82;21079;-53
2021/09/08 06:36:18;;;;;;;22.02;5.00;;;;;;;13.03;67.11;102100.70;1744066;82;20985;-52
2021/09/08 06:38:44;;;;;;;12.95;5.67;;;;;;;13.15;66.18;102100.65;1744287;82;21019;-55
2021/09/08 06:41:11;;;;;;;22.60;5.08;;;;;;;13.29;65.15;102099.75;1744115;82;21118;-55
2021/09/08 06:43:37;;;;;;;12.35;4.70;;;;;;;13.42;65.43;102092.77;1743991;82;21528;-55
2021/09/08 06:46:04;;;;;;;10.90;4.62;;;;;;;13.53;63.64;102089.70;1744125;82;20964;-52
2021/09/08 06:48:30;;;;;;;18.32;5.62;;;;;;;13.66;63.98;102087.90;1743980;82;20916;-55
2021/09/08 06:50:57;;;;;;;17.87;4.97;;;;;;;13.79;64.16;102084.79;1744161;82;20944;-54
2021/09/08 06:53:23;;;;;;;9.05;3.80;;;;;;;13.90;64.48;102084.31;1744170;82;21133;-54
2021/09/08 06:55:50;;;;;;;10.65;3.80;;;;;;;14.03;62.09;102082.91;1744317;82;20996;-54
2021/09/08 06:58:17;;;;;;;23.42;4.33;;;;;;;14.20;61.54;102089.28;1716657;82;21020;-52
2021/09/08 07:00:43;;;;;;;15.58;4.83;;;;;;;14.34;61.46;102083.54;1744087;82;21030;-53
2021/09/08 07:03:09;;;;;;;13.32;4.03;;;;;;;14.49;61.53;102087.75;1744193;82;21461;-52
2021/09/08 07:05:36;;;;;;;19.40;4.60;;;;;;;14.61;58.85;102089.80;1743988;82;21056;-53
2021/09/08 07:08:05;;;;;;;10.38;3.80;;;;;;;14.71;56.92;102086.28;1743979;82;21014;-52
2021/09/08 07:10:33;;;;;;;14.03;3.83;;;;;;;14.85;57.25;102087.87;1744145;82;21502;-51
2021/09/08 07:13:02;;;;;;;9.33;3.83;;;;;;;14.95;55.72;102085.61;1744161;82;20991;-52
2021/09/08 07:15:28;;;;;;;5.62;3.62;;;;;;;15.06;55.97;102081.13;1744322;82;20968;-54
2021/09/08 07:17:54;;;;;;;7.58;3.45;;;;;;;15.18;55.28;102084.03;1744103;82;21146;-52
2021/09/08 07:20:23;;;;;;;5.37;3.65;;;;;;;15.30;55.55;102089.54;1744027;82;21011;-54
2021/09/08 07:22:49;;;;;;;9.15;3.83;;;;;;;15.41;53.90;102088.53;1716712;82;21067;-52
2021/09/08 07:25:16;;;;;;;5.17;3.40;;;;;;;15.51;53.25;102087.09;1744088;82;20991;-54
2021/09/08 07:27:43;;;;;;;9.55;4.10;;;;;;;15.64;52.89;102092.16;1744035;82;21027;-53
2021/09/08 07:30:11;;;;;;;15.55;4.40;;;;;;;15.78;53.54;102088.89;1744008;82;21136;-52
2021/09/08 07:32:37;;;;;;;9.18;4.22;;;;;;;15.91;52.24;102087.46;1717024;82;21019;-52
2021/09/08 07:35:06;;;;;;;9.08;3.62;;;;;;;16.03;50.56;102089.02;1744090;82;21044;-55
2021/09/08 07:37:33;;;;;;;12.23;4.92;;;;;;;16.13;51.61;102086.67;1744085;82;21453;-54
2021/09/08 07:40:00;;;;;;;6.78;3.00;;;;;;;16.29;51.69;102083.83;1716681;82;20948;-54
2021/09/08 07:42:28;;;;;;;6.50;3.58;;;;;;;16.41;50.54;102078.38;1744140;82;21521;-54
2021/09/08 07:44:56;;;;;;;6.75;3.42;;;;;;;16.57;49.49;102080.30;1744121;82;20967;-50
2021/09/08 07:47:22;;;;;;;12.98;3.30;;;;;;;16.72;49.50;102077.85;1744145;82;20938;-52
2021/09/08 07:49:49;;;;;;;12.35;3.52;;;;;;;16.87;46.66;102079.31;1744187;82;20912;-51
2021/09/08 07:52:15;;;;;;;10.28;3.65;;;;;;;16.99;47.22;102071.70;1744043;82;21474;-53
2021/09/08 07:54:41;;;;;;;5.95;3.20;;;;;;;17.17;48.38;102073.08;1744386;82;21949;-50
2021/09/08 07:57:08;;;;;;;7.92;3.50;;;;;;;17.35;47.53;102073.14;1744083;82;21525;-52
2021/09/08 07:59:34;;;;;;;5.47;2.77;;;;;;;17.49;47.31;102070.22;1744494;82;21023;-50
2021/09/08 08:02:00;;;;;;;10.30;2.80;;;;;;;17.63;46.08;102071.22;1744164;82;21034;-55
2021/09/08 08:04:27;;;;;;;5.67;2.58;;;;;;;17.76;45.84;102074.42;1744491;82;21003;-55
2021/09/08 08:06:53;;;;;;;8.15;3.17;;;;;;;17.90;45.74;102070.63;1744132;82;21131;-54
2021/09/08 08:09:20;;;;;;;10.60;3.08;;;;;;;17.99;44.23;102070.87;1744160;82;21003;-55
2021/09/08 08:11:46;;;;;;;5.42;3.15;;;;;;;18.17;45.23;102073.52;1744324;82;20952;-53
2021/09/08 08:14:13;;;;;;;6.15;2.50;;;;;;;18.35;44.71;102064.31;1744335;82;21529;-51
2021/09/08 08:16:40;;;;;;;13.10;2.95;;;;;;;18.57;42.87;102072.50;1744185;82;20992;-54
2021/09/08 08:19:06;;;;;;;6.22;2.83;;;;;;;18.68;41.54;102073.50;1744145;82;21109;-53
2021/09/08 08:21:34;;;;;;;4.78;2.75;;;;;;;18.74;44.04;102069.42;1743920;81;21534;-52
2021/09/08 08:24:02;;;;;;;5.67;3.10;;;;;;;18.81;42.33;102073.58;1744166;82;20983;-55
2021/09/08 08:26:28;;;;;;;6.22;3.55;;;;;;;18.91;42.05;102067.63;1744098;82;21623;-53
2021/09/08 08:28:55;;;;;;;13.05;5.28;;;;;;;19.02;39.77;102069.98;1744136;82;21502;-53
2021/09/08 08:31:21;;;;;;;13.45;3.52;;;;;;;19.08;38.72;102068.49;1744235;82;21947;-53
2021/09/08 08:33:49;;;;;;;7.40;2.70;;;;;;;19.30;39.25;102070.93;1716584;82;21591;-51
2021/09/08 08:36:15;;;;;;;6.87;2.75;;;;;;;19.53;39.96;102064.53;1716795;82;20893;-51
2021/09/08 08:38:44;;;;;;;6.65;2.85;;;;;;;19.70;39.17;102061.84;1744426;82;20948;-52
2021/09/08 08:41:11;;;;;;;4.42;2.92;;;;;;;19.70;38.06;102057.03;1744190;82;20948;-53
2021/09/08 08:43:38;;;;;;;4.60;2.50;;;;;;;19.63;37.96;102051.98;1744270;82;21976;-53
2021/09/08 08:46:05;;;;;;;2.50;2.30;;;;;;;19.86;36.34;102050.86;1744283;82;21007;-51
2021/09/08 08:48:31;;;;;;;4.12;2.22;;;;;;;20.05;37.15;102048.52;1744083;82;21007;-51
2021/09/08 08:50:58;;;;;;;4.05;3.02;;;;;;;20.20;37.49;102049.29;1716919;82;21020;-52
2021/09/08 08:53:24;;;;;;;4.97;2.70;;;;;;;20.45;37.59;102044.97;1744422;82;21455;-52
2021/09/08 08:55:50;;;;;;;10.20;2.50;;;;;;;20.76;35.19;102040.80;1744057;82;21780;-54
2021/09/08 08:58:17;;;;;;;6.40;2.40;;;;;;;20.92;33.93;102038.93;1744090;82;20963;-54
2021/09/08 09:00:44;;;;;;;8.08;2.95;;;;;;;21.21;34.89;102041.78;1744231;82;20995;-51
2021/09/08 09:03:24;;;;;;;12.98;2.83;;;;;;;21.48;33.43;102040.31;1744470;82;20952;-52
2021/09/08 09:06:03;;;;;;;14.33;2.85;;;;;;;21.66;32.94;102033.47;1743264;82;20943;-51
2021/09/08 09:08:33;;;;;;;5.15;2.65;;;;;;;21.85;34.78;102035.80;1744133;82;21129;-54
2021/09/08 09:11:00;;;;;;;4.17;2.70;;;;;;;22.00;32.83;102022.48;1743996;82;20987;-54
2021/09/08 09:13:34;;;;;;;13.53;2.87;;;;;;;22.27;35.67;102026.17;1744082;82;20921;-53
2021/09/08 09:16:07;;;;;;;5.37;2.30;;;;;;;22.58;35.77;102026.17;1743953;82;20996;-54
2021/09/08 09:18:40;;;;;;;3.87;2.45;;;;;;;22.80;32.44;102026.92;1744398;82;20936;-54
2021/09/08 09:21:14;;;;;;;6.28;2.05;;;;;;;22.94;31.72;102027.61;1744019;82;21742;-52
2021/09/08 09:23:45;;;;;;;8.48;2.30;;;;;;;22.84;30.92;102019.70;1744265;82;21030;-52
2021/09/08 09:26:12;;;;;;;2.35;2.02;;;;;;;22.89;31.75;102018.18;1744028;82;21027;-52
2021/09/08 09:28:42;;;;;;;3.20;2.17;;;;;;;23.02;31.65;102014.50;1743988;82;21533;-53
2021/09/08 09:31:21;;;;;;;2.33;2.17;;;;;;;23.19;31.98;102009.75;1744087;82;20979;-52
2021/09/08 09:33:56;;;;;;;2.25;2.10;;;;;;;23.02;30.56;102012.73;1744177;82;21013;-53
2021/09/08 09:36:25;;;;;;;8.17;2.57;;;;;;;22.64;30.11;102010.93;1718825;82;20984;-54
2021/09/08 09:38:53;;;;;;;7.17;2.10;;;;;;;22.34;32.80;102010.47;1744131;82;20987;-51
2021/09/08 09:41:35;;;;;;;6.80;2.52;;;;;;;22.64;32.08;102004.78;1744154;82;20975;-54
2021/09/08 09:44:16;;;;;;;9.00;2.35;;;;;;;22.84;30.46;101999.06;1744060;82;20991;-53
2021/09/08 09:46:45;;;;;;;3.70;2.25;;;;;;;22.77;29.73;101994.52;1744119;82;21748;-54
2021/09/08 09:49:14;;;;;;;3.20;2.37;;;;;;;22.87;30.31;101991.88;1744101;82;20985;-55
2021/09/08 09:51:41;;;;;;;3.65;2.83;;;;;;;23.01;29.88;101983.75;1744155;82;21487;-53
2021/09/08 09:54:09;;;;;;;6.83;2.85;;;;;;;23.20;31.12;101980.64;1744194;82;22278;-52
2021/09/08 09:56:37;;;;;;;3.42;2.33;;;;;;;23.48;31.97;101978.00;1744084;82;20987;-52
2021/09/08 09:59:04;;;;;;;6.08;2.50;;;;;;;23.63;30.40;101975.06;1717104;82;21198;-53
2021/09/08 10:01:31;;;;;;;2.70;2.15;;;;;;;23.82;28.54;101972.82;1744025;82;21015;-53
2021/09/08 10:03:57;;;;;;;7.47;2.90;;;;;;;23.79;29.41;101975.14;1716771;82;21561;-53
2021/09/08 10:06:23;;;;;;;4.85;2.50;;;;;;;23.83;30.22;101974.05;1744076;82;21569;-54
2021/09/08 10:08:55;;;;;;;3.72;2.10;;;;;;;23.65;28.91;101977.64;1716778;82;21046;-54
2021/09/08 10:11:25;;;;;;;3.35;2.20;;;;;;;23.32;30.97;101980.99;1743896;82;21953;-52
2021/09/08 10:13:57;;;;;;;4.08;2.30;;;;;;;22.76;29.28;101983.13;1743899;82;20904;-53
2021/09/08 10:16:24;;;;;;;4.33;2.30;;;;;;;22.41;30.17;101982.05;1716587;82;21006;-54
2021/09/08 10:18:52;;;;;;;10.20;2.42;;;;;;;22.35;30.93;101976.09;1694035;82;20940;-52
2021/09/08 10:21:20;;;;;;;2.55;2.12;;;;;;;22.47;30.35;101973.89;1744154;81;20940;-53
2021/09/08 10:24:01;;;;;;;5.90;2.15;;;;;;;22.38;30.26;101966.77;1743955;82;21060;-53
2021/09/08 10:26:29;;;;;;;3.92;2.50;;;;;;;22.45;29.29;101963.84;1743870;82;22235;-54
2021/09/08 10:29:07;;;;;;;7.08;2.37;;;;;;;22.20;29.70;101963.61;1716614;82;21054;-53
2021/09/08 10:31:43;;;;;;;7.28;2.25;;;;;;;22.24;30.20;101957.27;1743943;82;20901;-54
2021/09/08 10:34:15;;;;;;;4.50;2.33;;;;;;;22.41;30.31;101967.55;1744092;82;20905;-52
2021/09/08 10:36:39;;;;;;;9.53;1.98;;;;;;;22.73;29.72;101959.48;1743805;82;21794;-53
2021/09/08 10:39:15;;;;;;;4.50;2.40;;;;;;;22.92;31.22;101951.59;1693655;82;21035;-54
2021/09/08 10:41:46;;;;;;;2.65;2.10;;;;;;;23.06;29.53;101943.02;1717444;82;20928;-53
2021/09/08 10:44:13;;;;;;;4.40;2.52;;;;;;;22.92;28.35;101948.95;1744050;82;20972;-54
2021/09/08 10:46:58;;;;;;;4.25;2.02;;;;;;;22.84;29.73;101941.84;1744388;82;21007;-51
2021/09/08 10:49:42;;;;;;;5.08;2.52;;;;;;;22.94;30.63;101939.63;1709899;82;20984;-52
2021/09/08 10:52:13;;;;;;;4.78;1.90;;;;;;;23.03;30.22;101933.05;1744318;82;21007;-53
2021/09/08 10:55:02;;;;;;;5.03;2.08;;;;;;;23.03;29.76;101933.92;1744126;82;21693;-54
2021/09/08 10:57:47;;;;;;;2.22;2.02;;;;;;;22.80;30.13;101934.55;1744415;82;20952;-52
2021/09/08 11:00:30;;;;;;;3.58;2.10;;;;;;;22.77;28.34;101938.66;1716801;82;21039;-55
2021/09/08 11:02:57;;;;;;;7.15;1.92;;;;;;;22.73;29.17;101929.14;1744142;82;21853;-54
2021/09/08 11:05:24;;;;;;;9.30;2.60;;;;;;;23.05;28.50;101927.23;1744011;82;20909;-54
2021/09/08 11:07:51;;;;;;;2.70;2.22;;;;;;;23.08;29.11;101925.76;1716556;82;20952;-54
2021/09/08 11:10:32;;;;;;;2.17;1.95;;;;;;;23.02;29.91;101921.66;1744149;82;21015;-55
2021/09/08 11:13:01;;;;;;;4.03;2.17;;;;;;;22.97;27.87;101918.35;1744134;82;20991;-54
2021/09/08 11:15:36;;;;;;;5.22;2.10;;;;;;;22.78;29.87;101921.02;1744407;82;21604;-54
2021/09/08 11:18:06;;;;;;;4.40;2.67;;;;;;;22.77;30.46;101921.50;1744213;82;20928;-55
2021/09/08 11:20:34;;;;;;;2.50;2.30;;;;;;;22.90;31.42;101923.09;1710283;82;21023;-56
2021/09/08 11:23:08;;;;;;;2.98;1.87;;;;;;;23.07;28.46;101918.77;1744111;82;20995;-55